sensor_id;sensor_type;location;lat;lon;timestamp;temperature;humidity
23377;DHT22;14353;46.070;13.222;2023-02-11T00:01:09;19.60;27.50
23377;DHT22;14353;46.070;13.222;2023-02-11T00:03:36;19.60;27.50
23377;DHT22;14353;46.070;13.222;2023-02-11T00:06:05;19.50;27.50
23377;DHT22;14353;46.070;13.222;2023-02-11T00:08:34;19.60;27.50
23377;DHT22;14353;46.070;13.222;2023-02-11T00:10:59;19.50;27.50
23377;DHT22;14353;46.070;13.222;2023-02-11T00:13:25;19.50;27.50
23377;DHT22;14353;46.070;13.222;2023-02-11T00:15:52;19.50;27.60
23377;DHT22;14353;46.070;13.222;2023-02-11T00:18:18;19.50;27.50
23377;DHT22;14353;46.070;13.222;2023-02-11T00:20:44;19.50;27.60
23377;DHT22;14353;46.070;13.222;2023-02-11T00:23:10;19.50;27.60
23377;DHT22;14353;46.070;13.222;2023-02-11T00:25:43;19.50;27.60
23377;DHT22;14353;46.070;13.222;2023-02-11T00:28:10;19.50;27.60
23377;DHT22;14353;46.070;13.222;2023-02-11T00:30:36;19.50;27.60
23377;DHT22;14353;46.070;13.222;2023-02-11T00:33:02;19.50;27.60
23377;DHT22;14353;46.070;13.222;2023-02-11T00:35:28;19.40;27.60
23377;DHT22;14353;46.070;13.222;2023-02-11T00:37:54;19.40;27.60
23377;DHT22;14353;46.070;13.222;2023-02-11T00:40:21;19.40;27.60
23377;DHT22;14353;46.070;13.222;2023-02-11T00:42:46;19.40;27.60
23377;DHT22;14353;46.070;13.222;2023-02-11T00:45:12;19.40;27.80
23377;DHT22;14353;46.070;13.222;2023-02-11T00:47:38;19.40;27.60
23377;DHT22;14353;46.070;13.222;2023-02-11T00:50:05;19.40;27.60
23377;DHT22;14353;46.070;13.222;2023-02-11T00:52:31;19.40;27.60
23377;DHT22;14353;46.070;13.222;2023-02-11T00:54:57;19.40;27.70
23377;DHT22;14353;46.070;13.222;2023-02-11T00:57:24;19.40;27.60
23377;DHT22;14353;46.070;13.222;2023-02-11T00:59:50;19.40;27.60
23377;DHT22;14353;46.070;13.222;2023-02-11T01:05:37;19.30;27.60
23377;DHT22;14353;46.070;13.222;2023-02-11T01:08:03;19.30;27.60
23377;DHT22;14353;46.070;13.222;2023-02-11T01:10:29;19.30;27.60
23377;DHT22;14353;46.070;13.222;2023-02-11T01:12:55;19.30;27.60
23377;DHT22;14353;46.070;13.222;2023-02-11T01:15:21;19.40;27.70
23377;DHT22;14353;46.070;13.222;2023-02-11T01:17:47;19.30;27.60
23377;DHT22;14353;46.070;13.222;2023-02-11T01:20:19;19.30;27.70
23377;DHT22;14353;46.070;13.222;2023-02-11T01:22:45;19.30;27.70
23377;DHT22;14353;46.070;13.222;2023-02-11T01:25:11;19.30;27.60
23377;DHT22;14353;46.070;13.222;2023-02-11T01:27:37;19.30;27.60
23377;DHT22;14353;46.070;13.222;2023-02-11T01:30:05;19.30;27.70
23377;DHT22;14353;46.070;13.222;2023-02-11T01:32:31;19.30;27.80
23377;DHT22;14353;46.070;13.222;2023-02-11T01:34:57;19.30;27.70
23377;DHT22;14353;46.070;13.222;2023-02-11T01:37:23;19.30;27.70
23377;DHT22;14353;46.070;13.222;2023-02-11T01:39:48;19.30;27.80
23377;DHT22;14353;46.070;13.222;2023-02-11T01:42:22;19.20;27.70
23377;DHT22;14353;46.070;13.222;2023-02-11T01:44:52;19.20;27.70
23377;DHT22;14353;46.070;13.222;2023-02-11T01:47:18;19.20;27.70
23377;DHT22;14353;46.070;13.222;2023-02-11T01:50:02;19.20;27.70
23377;DHT22;14353;46.070;13.222;2023-02-11T01:52:32;19.20;27.80
23377;DHT22;14353;46.070;13.222;2023-02-11T01:55:01;19.20;27.80
23377;DHT22;14353;46.070;13.222;2023-02-11T01:57:50;19.20;27.80
23377;DHT22;14353;46.070;13.222;2023-02-11T02:02:59;19.20;27.80
23377;DHT22;14353;46.070;13.222;2023-02-11T02:08:35;19.20;27.80
23377;DHT22;14353;46.070;13.222;2023-02-11T02:11:03;19.10;27.70
23377;DHT22;14353;46.070;13.222;2023-02-11T02:13:32;19.10;27.80
23377;DHT22;14353;46.070;13.222;2023-02-11T02:16:00;19.10;27.80
23377;DHT22;14353;46.070;13.222;2023-02-11T02:38:06;19.10;27.80
23377;DHT22;14353;46.070;13.222;2023-02-11T02:40:42;19.10;27.80
23377;DHT22;14353;46.070;13.222;2023-02-11T02:43:11;19.10;27.80
23377;DHT22;14353;46.070;13.222;2023-02-11T02:45:38;19.10;27.80
23377;DHT22;14353;46.070;13.222;2023-02-11T02:48:04;19.10;27.80
23377;DHT22;14353;46.070;13.222;2023-02-11T02:50:34;19.00;27.80
23377;DHT22;14353;46.070;13.222;2023-02-11T02:53:50;19.00;27.80
23377;DHT22;14353;46.070;13.222;2023-02-11T02:56:31;19.00;27.80
23377;DHT22;14353;46.070;13.222;2023-02-11T02:59:05;19.00;27.80
23377;DHT22;14353;46.070;13.222;2023-02-11T03:01:49;19.00;27.90
23377;DHT22;14353;46.070;13.222;2023-02-11T03:04:27;19.00;27.90
23377;DHT22;14353;46.070;13.222;2023-02-11T03:07:16;19.00;27.80
23377;DHT22;14353;46.070;13.222;2023-02-11T03:12:38;19.00;27.80
23377;DHT22;14353;46.070;13.222;2023-02-11T03:15:07;19.00;27.80
23377;DHT22;14353;46.070;13.222;2023-02-11T03:17:34;19.00;27.90
23377;DHT22;14353;46.070;13.222;2023-02-11T03:20:02;19.00;27.80
23377;DHT22;14353;46.070;13.222;2023-02-11T03:22:57;19.00;27.80
23377;DHT22;14353;46.070;13.222;2023-02-11T03:25:29;19.00;27.80
23377;DHT22;14353;46.070;13.222;2023-02-11T03:28:03;19.00;27.80
23377;DHT22;14353;46.070;13.222;2023-02-11T03:33:34;18.90;27.80
23377;DHT22;14353;46.070;13.222;2023-02-11T03:36:06;18.90;27.80
23377;DHT22;14353;46.070;13.222;2023-02-11T03:38:44;18.90;27.80
23377;DHT22;14353;46.070;13.222;2023-02-11T03:41:12;18.90;27.80
23377;DHT22;14353;46.070;13.222;2023-02-11T03:43:45;18.90;27.80
23377;DHT22;14353;46.070;13.222;2023-02-11T03:46:16;18.90;27.80
23377;DHT22;14353;46.070;13.222;2023-02-11T03:48:50;18.90;27.80
23377;DHT22;14353;46.070;13.222;2023-02-11T03:51:17;18.90;27.80
23377;DHT22;14353;46.070;13.222;2023-02-11T03:53:46;18.90;27.80
23377;DHT22;14353;46.070;13.222;2023-02-11T03:56:18;18.90;27.80
23377;DHT22;14353;46.070;13.222;2023-02-11T03:58:45;18.90;27.80
23377;DHT22;14353;46.070;13.222;2023-02-11T04:01:11;18.90;27.80
23377;DHT22;14353;46.070;13.222;2023-02-11T04:03:37;18.90;27.80
23377;DHT22;14353;46.070;13.222;2023-02-11T04:06:06;18.90;27.80
23377;DHT22;14353;46.070;13.222;2023-02-11T04:08:31;18.90;27.80
23377;DHT22;14353;46.070;13.222;2023-02-11T04:10:58;18.80;28.30
23377;DHT22;14353;46.070;13.222;2023-02-11T04:13:24;18.80;27.80
23377;DHT22;14353;46.070;13.222;2023-02-11T04:15:50;18.90;27.80
23377;DHT22;14353;46.070;13.222;2023-02-11T04:18:15;18.80;27.80
23377;DHT22;14353;46.070;13.222;2023-02-11T04:20:41;18.80;27.80
23377;DHT22;14353;46.070;13.222;2023-02-11T04:23:07;18.80;27.80
23377;DHT22;14353;46.070;13.222;2023-02-11T04:25:32;18.80;27.80
23377;DHT22;14353;46.070;13.222;2023-02-11T04:27:58;18.80;27.80
23377;DHT22;14353;46.070;13.222;2023-02-11T04:30:24;18.80;27.80
23377;DHT22;14353;46.070;13.222;2023-02-11T04:32:49;18.80;27.70
23377;DHT22;14353;46.070;13.222;2023-02-11T04:35:15;18.80;27.80
23377;DHT22;14353;46.070;13.222;2023-02-11T04:37:41;18.80;27.80
23377;DHT22;14353;46.070;13.222;2023-02-11T04:40:07;18.80;27.70
23377;DHT22;14353;46.070;13.222;2023-02-11T04:42:33;18.80;27.80
23377;DHT22;14353;46.070;13.222;2023-02-11T04:44:58;18.80;27.80
23377;DHT22;14353;46.070;13.222;2023-02-11T04:47:24;18.80;27.80
23377;DHT22;14353;46.070;13.222;2023-02-11T04:49:50;18.80;27.80
23377;DHT22;14353;46.070;13.222;2023-02-11T04:52:15;18.80;27.80
23377;DHT22;14353;46.070;13.222;2023-02-11T04:54:41;18.70;27.80
23377;DHT22;14353;46.070;13.222;2023-02-11T04:57:07;18.70;27.80
23377;DHT22;14353;46.070;13.222;2023-02-11T04:59:32;18.70;27.80
23377;DHT22;14353;46.070;13.222;2023-02-11T05:01:58;18.70;27.80
23377;DHT22;14353;46.070;13.222;2023-02-11T05:04:24;18.70;27.80
23377;DHT22;14353;46.070;13.222;2023-02-11T05:06:50;18.70;27.80
23377;DHT22;14353;46.070;13.222;2023-02-11T05:09:15;18.70;27.90
23377;DHT22;14353;46.070;13.222;2023-02-11T05:11:42;18.70;27.80
23377;DHT22;14353;46.070;13.222;2023-02-11T05:14:07;18.70;27.80
23377;DHT22;14353;46.070;13.222;2023-02-11T05:16:33;18.70;27.80
23377;DHT22;14353;46.070;13.222;2023-02-11T05:18:59;18.70;27.80
23377;DHT22;14353;46.070;13.222;2023-02-11T05:21:25;18.70;27.80
23377;DHT22;14353;46.070;13.222;2023-02-11T05:23:50;18.70;27.80
23377;DHT22;14353;46.070;13.222;2023-02-11T05:26:17;18.70;27.80
23377;DHT22;14353;46.070;13.222;2023-02-11T05:28:43;18.70;27.80
23377;DHT22;14353;46.070;13.222;2023-02-11T05:31:10;18.60;27.80
23377;DHT22;14353;46.070;13.222;2023-02-11T05:33:36;18.60;27.70
23377;DHT22;14353;46.070;13.222;2023-02-11T05:36:04;18.60;27.70
23377;DHT22;14353;46.070;13.222;2023-02-11T05:38:31;18.60;27.80
23377;DHT22;14353;46.070;13.222;2023-02-11T05:40:57;18.60;27.80
23377;DHT22;14353;46.070;13.222;2023-02-11T05:43:23;18.60;27.80
23377;DHT22;14353;46.070;13.222;2023-02-11T05:45:49;18.60;27.70
23377;DHT22;14353;46.070;13.222;2023-02-11T05:48:15;18.60;27.80
23377;DHT22;14353;46.070;13.222;2023-02-11T05:50:40;18.60;27.80
23377;DHT22;14353;46.070;13.222;2023-02-11T05:53:06;18.60;27.70
23377;DHT22;14353;46.070;13.222;2023-02-11T05:55:32;18.60;27.80
23377;DHT22;14353;46.070;13.222;2023-02-11T05:57:58;18.60;27.80
23377;DHT22;14353;46.070;13.222;2023-02-11T06:00:24;18.60;27.80
23377;DHT22;14353;46.070;13.222;2023-02-11T06:02:50;18.60;27.80
23377;DHT22;14353;46.070;13.222;2023-02-11T06:05:16;18.60;27.80
23377;DHT22;14353;46.070;13.222;2023-02-11T06:07:41;18.50;27.70
23377;DHT22;14353;46.070;13.222;2023-02-11T06:10:07;18.60;27.80
23377;DHT22;14353;46.070;13.222;2023-02-11T06:12:35;18.50;27.80
23377;DHT22;14353;46.070;13.222;2023-02-11T06:15:01;18.50;27.70
23377;DHT22;14353;46.070;13.222;2023-02-11T06:17:27;18.50;27.80
23377;DHT22;14353;46.070;13.222;2023-02-11T06:19:57;18.50;27.80
23377;DHT22;14353;46.070;13.222;2023-02-11T06:22:23;18.50;27.80
23377;DHT22;14353;46.070;13.222;2023-02-11T06:24:48;18.40;27.80
23377;DHT22;14353;46.070;13.222;2023-02-11T06:27:14;18.40;27.90
23377;DHT22;14353;46.070;13.222;2023-02-11T06:29:40;18.40;27.80
23377;DHT22;14353;46.070;13.222;2023-02-11T06:32:06;18.40;27.70
23377;DHT22;14353;46.070;13.222;2023-02-11T06:34:31;18.40;27.30
23377;DHT22;14353;46.070;13.222;2023-02-11T06:36:57;18.40;27.10
23377;DHT22;14353;46.070;13.222;2023-02-11T06:39:23;18.50;27.10
23377;DHT22;14353;46.070;13.222;2023-02-11T06:41:48;18.50;27.00
23377;DHT22;14353;46.070;13.222;2023-02-11T06:44:14;18.50;26.90
23377;DHT22;14353;46.070;13.222;2023-02-11T06:46:40;18.50;26.80
23377;DHT22;14353;46.070;13.222;2023-02-11T06:49:05;18.50;26.70
23377;DHT22;14353;46.070;13.222;2023-02-11T06:51:31;18.50;26.70
23377;DHT22;14353;46.070;13.222;2023-02-11T06:53:57;18.60;26.70
23377;DHT22;14353;46.070;13.222;2023-02-11T06:56:23;18.60;26.60
23377;DHT22;14353;46.070;13.222;2023-02-11T06:58:53;18.60;26.60
23377;DHT22;14353;46.070;13.222;2023-02-11T07:01:20;18.60;26.60
23377;DHT22;14353;46.070;13.222;2023-02-11T07:03:46;18.60;26.70
23377;DHT22;14353;46.070;13.222;2023-02-11T07:06:24;18.60;26.70
23377;DHT22;14353;46.070;13.222;2023-02-11T07:08:53;18.70;26.70
23377;DHT22;14353;46.070;13.222;2023-02-11T07:11:31;18.70;26.70
23377;DHT22;14353;46.070;13.222;2023-02-11T07:14:05;18.70;26.80
23377;DHT22;14353;46.070;13.222;2023-02-11T07:16:33;18.70;27.00
23377;DHT22;14353;46.070;13.222;2023-02-11T07:18:59;18.80;26.90
23377;DHT22;14353;46.070;13.222;2023-02-11T07:21:25;18.70;26.70
23377;DHT22;14353;46.070;13.222;2023-02-11T07:23:50;18.80;26.80
23377;DHT22;14353;46.070;13.222;2023-02-11T07:26:18;18.80;26.80
23377;DHT22;14353;46.070;13.222;2023-02-11T07:28:44;18.80;26.70
23377;DHT22;14353;46.070;13.222;2023-02-11T07:31:13;18.80;26.80
23377;DHT22;14353;46.070;13.222;2023-02-11T07:33:39;18.80;26.70
23377;DHT22;14353;46.070;13.222;2023-02-11T07:36:06;18.80;26.30
23377;DHT22;14353;46.070;13.222;2023-02-11T07:38:34;18.80;26.20
23377;DHT22;14353;46.070;13.222;2023-02-11T07:41:04;18.80;26.10
23377;DHT22;14353;46.070;13.222;2023-02-11T07:43:31;18.80;25.90
23377;DHT22;14353;46.070;13.222;2023-02-11T07:45:56;18.90;26.00
23377;DHT22;14353;46.070;13.222;2023-02-11T07:48:22;18.90;25.80
23377;DHT22;14353;46.070;13.222;2023-02-11T07:50:48;18.90;25.70
23377;DHT22;14353;46.070;13.222;2023-02-11T07:53:14;18.90;25.80
23377;DHT22;14353;46.070;13.222;2023-02-11T07:55:41;18.90;25.80
23377;DHT22;14353;46.070;13.222;2023-02-11T07:58:07;18.90;25.80
23377;DHT22;14353;46.070;13.222;2023-02-11T08:00:33;18.90;25.90
23377;DHT22;14353;46.070;13.222;2023-02-11T08:02:59;18.90;26.00
23377;DHT22;14353;46.070;13.222;2023-02-11T08:05:25;19.00;26.10
23377;DHT22;14353;46.070;13.222;2023-02-11T08:07:53;19.00;26.20
23377;DHT22;14353;46.070;13.222;2023-02-11T08:10:20;19.00;26.20
23377;DHT22;14353;46.070;13.222;2023-02-11T08:12:47;19.00;26.30
23377;DHT22;14353;46.070;13.222;2023-02-11T08:15:13;19.00;26.30
23377;DHT22;14353;46.070;13.222;2023-02-11T08:17:41;19.00;26.40
23377;DHT22;14353;46.070;13.222;2023-02-11T08:20:07;19.00;26.40
23377;DHT22;14353;46.070;13.222;2023-02-11T08:22:34;19.00;26.40
23377;DHT22;14353;46.070;13.222;2023-02-11T08:25:00;19.10;26.90
23377;DHT22;14353;46.070;13.222;2023-02-11T08:27:26;19.10;26.90
23377;DHT22;14353;46.070;13.222;2023-02-11T08:29:55;19.10;27.00
23377;DHT22;14353;46.070;13.222;2023-02-11T08:32:21;19.10;27.10
23377;DHT22;14353;46.070;13.222;2023-02-11T08:34:52;19.20;27.10
23377;DHT22;14353;46.070;13.222;2023-02-11T08:37:18;19.20;27.20
23377;DHT22;14353;46.070;13.222;2023-02-11T08:39:44;19.20;27.30
23377;DHT22;14353;46.070;13.222;2023-02-11T08:42:12;19.20;27.30
23377;DHT22;14353;46.070;13.222;2023-02-11T08:44:38;19.20;27.30
23377;DHT22;14353;46.070;13.222;2023-02-11T08:47:04;19.20;27.40
23377;DHT22;14353;46.070;13.222;2023-02-11T08:49:30;19.30;27.60
23377;DHT22;14353;46.070;13.222;2023-02-11T08:51:56;19.30;27.70
23377;DHT22;14353;46.070;13.222;2023-02-11T08:54:26;19.30;27.70
23377;DHT22;14353;46.070;13.222;2023-02-11T08:56:52;19.30;27.70
23377;DHT22;14353;46.070;13.222;2023-02-11T08:59:18;19.40;27.60
23377;DHT22;14353;46.070;13.222;2023-02-11T09:01:44;19.40;27.60
23377;DHT22;14353;46.070;13.222;2023-02-11T09:04:11;19.40;27.60
23377;DHT22;14353;46.070;13.222;2023-02-11T09:06:38;19.40;27.60
23377;DHT22;14353;46.070;13.222;2023-02-11T09:09:04;19.40;27.50
23377;DHT22;14353;46.070;13.222;2023-02-11T09:11:32;19.50;27.70
23377;DHT22;14353;46.070;13.222;2023-02-11T09:13:59;19.50;28.10
23377;DHT22;14353;46.070;13.222;2023-02-11T09:16:30;19.50;28.30
23377;DHT22;14353;46.070;13.222;2023-02-11T09:18:57;19.60;28.60
23377;DHT22;14353;46.070;13.222;2023-02-11T09:21:23;19.60;28.60
23377;DHT22;14353;46.070;13.222;2023-02-11T09:23:49;19.60;28.50
23377;DHT22;14353;46.070;13.222;2023-02-11T09:26:20;19.60;28.40
23377;DHT22;14353;46.070;13.222;2023-02-11T09:28:47;19.60;28.50
23377;DHT22;14353;46.070;13.222;2023-02-11T09:31:16;19.70;28.70
23377;DHT22;14353;46.070;13.222;2023-02-11T09:33:44;19.70;28.70
23377;DHT22;14353;46.070;13.222;2023-02-11T09:36:16;19.70;28.70
23377;DHT22;14353;46.070;13.222;2023-02-11T09:38:42;19.70;28.50
23377;DHT22;14353;46.070;13.222;2023-02-11T09:41:34;19.70;28.40
23377;DHT22;14353;46.070;13.222;2023-02-11T09:44:06;19.80;28.60
23377;DHT22;14353;46.070;13.222;2023-02-11T09:46:36;19.80;28.80
23377;DHT22;14353;46.070;13.222;2023-02-11T09:49:04;19.80;28.80
23377;DHT22;14353;46.070;13.222;2023-02-11T09:54:33;19.90;29.00
23377;DHT22;14353;46.070;13.222;2023-02-11T09:57:00;19.90;29.10
23377;DHT22;14353;46.070;13.222;2023-02-11T09:59:26;19.90;29.20
23377;DHT22;14353;46.070;13.222;2023-02-11T10:01:59;20.00;29.50
23377;DHT22;14353;46.070;13.222;2023-02-11T10:08:01;20.00;30.00
23377;DHT22;14353;46.070;13.222;2023-02-11T10:16:03;20.10;30.70
23377;DHT22;14353;46.070;13.222;2023-02-11T10:18:37;20.20;30.30
23377;DHT22;14353;46.070;13.222;2023-02-11T10:21:29;20.20;30.90
23377;DHT22;14353;46.070;13.222;2023-02-11T10:24:00;20.20;30.10
23377;DHT22;14353;46.070;13.222;2023-02-11T10:26:30;20.20;30.00
23377;DHT22;14353;46.070;13.222;2023-02-11T10:29:00;20.30;30.00
23377;DHT22;14353;46.070;13.222;2023-02-11T10:31:35;20.30;30.00
23377;DHT22;14353;46.070;13.222;2023-02-11T10:34:09;20.30;30.50
23377;DHT22;14353;46.070;13.222;2023-02-11T10:36:39;20.30;29.90
23377;DHT22;14353;46.070;13.222;2023-02-11T10:39:19;20.30;29.80
23377;DHT22;14353;46.070;13.222;2023-02-11T10:41:51;20.40;29.80
23377;DHT22;14353;46.070;13.222;2023-02-11T10:47:18;20.40;29.70
23377;DHT22;14353;46.070;13.222;2023-02-11T10:49:45;20.40;29.70
23377;DHT22;14353;46.070;13.222;2023-02-11T10:52:24;20.40;29.70
23377;DHT22;14353;46.070;13.222;2023-02-11T11:02:57;20.50;29.50
23377;DHT22;14353;46.070;13.222;2023-02-11T11:08:49;20.50;29.50
23377;DHT22;14353;46.070;13.222;2023-02-11T11:11:21;20.50;29.60
23377;DHT22;14353;46.070;13.222;2023-02-11T11:13:57;20.50;29.40
23377;DHT22;14353;46.070;13.222;2023-02-11T11:16:37;20.50;29.40
23377;DHT22;14353;46.070;13.222;2023-02-11T11:21:45;20.60;29.40
23377;DHT22;14353;46.070;13.222;2023-02-11T11:24:16;20.60;29.30
23377;DHT22;14353;46.070;13.222;2023-02-11T11:26:46;20.60;29.30
23377;DHT22;14353;46.070;13.222;2023-02-11T11:29:16;20.70;29.30
23377;DHT22;14353;46.070;13.222;2023-02-11T11:32:01;20.70;29.20
23377;DHT22;14353;46.070;13.222;2023-02-11T11:34:36;20.80;29.10
23377;DHT22;14353;46.070;13.222;2023-02-11T11:37:30;20.80;29.10
23377;DHT22;14353;46.070;13.222;2023-02-11T11:39:59;20.90;29.00
23377;DHT22;14353;46.070;13.222;2023-02-11T11:42:32;20.90;29.00
23377;DHT22;14353;46.070;13.222;2023-02-11T11:50:36;21.10;28.90
23377;DHT22;14353;46.070;13.222;2023-02-11T11:58:16;21.20;28.80
23377;DHT22;14353;46.070;13.222;2023-02-11T12:01:04;21.20;28.70
23377;DHT22;14353;46.070;13.222;2023-02-11T12:11:56;21.40;28.50
23377;DHT22;14353;46.070;13.222;2023-02-11T12:26:08;21.60;27.10
23377;DHT22;14353;46.070;13.222;2023-02-11T12:37:13;21.50;26.20
23377;DHT22;14353;46.070;13.222;2023-02-11T12:42:08;21.50;25.60
23377;DHT22;14353;46.070;13.222;2023-02-11T12:50:56;21.50;24.90
23377;DHT22;14353;46.070;13.222;2023-02-11T12:56:23;21.50;25.00
23377;DHT22;14353;46.070;13.222;2023-02-11T12:58:54;21.50;25.50
23377;DHT22;14353;46.070;13.222;2023-02-11T13:01:26;21.60;25.50
23377;DHT22;14353;46.070;13.222;2023-02-11T13:07:29;21.70;25.60
23377;DHT22;14353;46.070;13.222;2023-02-11T13:09:41;21.70;25.60
23377;DHT22;14353;46.070;13.222;2023-02-11T13:12:09;21.80;25.60
23377;DHT22;14353;46.070;13.222;2023-02-11T13:14:58;21.90;25.70
23377;DHT22;14353;46.070;13.222;2023-02-11T13:17:35;21.90;25.70
23377;DHT22;14353;46.070;13.222;2023-02-11T13:20:25;22.00;25.70
23377;DHT22;14353;46.070;13.222;2023-02-11T13:25:39;22.10;25.80
23377;DHT22;14353;46.070;13.222;2023-02-11T13:30:45;22.20;25.80
23377;DHT22;14353;46.070;13.222;2023-02-11T13:33:17;22.20;25.80
23377;DHT22;14353;46.070;13.222;2023-02-11T13:40:41;22.30;25.90
23377;DHT22;14353;46.070;13.222;2023-02-11T13:43:20;22.30;25.90
23377;DHT22;14353;46.070;13.222;2023-02-11T13:45:47;22.30;25.90
23377;DHT22;14353;46.070;13.222;2023-02-11T13:50:46;22.40;26.00
23377;DHT22;14353;46.070;13.222;2023-02-11T13:53:13;22.40;26.10
23377;DHT22;14353;46.070;13.222;2023-02-11T13:55:45;22.40;26.10
23377;DHT22;14353;46.070;13.222;2023-02-11T13:58:15;22.40;26.10
23377;DHT22;14353;46.070;13.222;2023-02-11T14:00:50;22.50;26.10
23377;DHT22;14353;46.070;13.222;2023-02-11T14:14:27;22.60;26.20
23377;DHT22;14353;46.070;13.222;2023-02-11T14:19:46;22.60;26.20
23377;DHT22;14353;46.070;13.222;2023-02-11T14:22:14;22.60;26.20
23377;DHT22;14353;46.070;13.222;2023-02-11T14:24:50;22.60;26.20
23377;DHT22;14353;46.070;13.222;2023-02-11T14:29:59;22.70;26.30
23377;DHT22;14353;46.070;13.222;2023-02-11T14:41:24;22.70;26.30
23377;DHT22;14353;46.070;13.222;2023-02-11T14:43:56;22.70;26.20
23377;DHT22;14353;46.070;13.222;2023-02-11T14:46:23;22.70;26.30
23377;DHT22;14353;46.070;13.222;2023-02-11T14:48:53;22.70;26.80
23377;DHT22;14353;46.070;13.222;2023-02-11T14:51:31;22.70;26.30
23377;DHT22;14353;46.070;13.222;2023-02-11T14:54:13;22.80;26.30
23377;DHT22;14353;46.070;13.222;2023-02-11T14:56:40;22.80;26.40
23377;DHT22;14353;46.070;13.222;2023-02-11T14:59:21;22.80;26.30
23377;DHT22;14353;46.070;13.222;2023-02-11T15:01:51;22.80;26.40
23377;DHT22;14353;46.070;13.222;2023-02-11T15:04:24;22.80;26.40
23377;DHT22;14353;46.070;13.222;2023-02-11T15:06:50;22.80;26.40
23377;DHT22;14353;46.070;13.222;2023-02-11T15:09:21;22.80;26.40
23377;DHT22;14353;46.070;13.222;2023-02-11T15:11:53;22.80;26.40
23377;DHT22;14353;46.070;13.222;2023-02-11T15:14:27;22.80;26.40
23377;DHT22;14353;46.070;13.222;2023-02-11T15:16:57;22.80;26.40
23377;DHT22;14353;46.070;13.222;2023-02-11T15:19:44;22.80;26.50
23377;DHT22;14353;46.070;13.222;2023-02-11T15:22:20;22.80;26.40
23377;DHT22;14353;46.070;13.222;2023-02-11T15:25:08;22.80;26.50
23377;DHT22;14353;46.070;13.222;2023-02-11T15:27:50;22.80;26.50
23377;DHT22;14353;46.070;13.222;2023-02-11T15:30:28;22.80;26.50
23377;DHT22;14353;46.070;13.222;2023-02-11T15:32:56;22.70;26.50
23377;DHT22;14353;46.070;13.222;2023-02-11T15:35:29;22.70;26.50
23377;DHT22;14353;46.070;13.222;2023-02-11T15:37:57;22.70;26.60
23377;DHT22;14353;46.070;13.222;2023-02-11T15:40:26;22.70;26.60
23377;DHT22;14353;46.070;13.222;2023-02-11T15:42:55;22.70;26.70
23377;DHT22;14353;46.070;13.222;2023-02-11T15:46:11;22.70;26.70
23377;DHT22;14353;46.070;13.222;2023-02-11T15:48:40;22.70;26.70
23377;DHT22;14353;46.070;13.222;2023-02-11T15:51:20;22.60;26.70
23377;DHT22;14353;46.070;13.222;2023-02-11T15:53:51;22.60;26.70
23377;DHT22;14353;46.070;13.222;2023-02-11T15:56:41;22.60;26.70
23377;DHT22;14353;46.070;13.222;2023-02-11T15:59:24;22.60;26.80
23377;DHT22;14353;46.070;13.222;2023-02-11T16:01:51;22.60;26.90
23377;DHT22;14353;46.070;13.222;2023-02-11T16:04:25;22.50;26.80
23377;DHT22;14353;46.070;13.222;2023-02-11T16:06:53;22.50;26.90
23377;DHT22;14353;46.070;13.222;2023-02-11T16:09:23;22.50;26.90
23377;DHT22;14353;46.070;13.222;2023-02-11T16:17:02;22.40;26.90
23377;DHT22;14353;46.070;13.222;2023-02-11T16:19:29;22.40;26.90
23377;DHT22;14353;46.070;13.222;2023-02-11T16:21:57;22.40;27.00
23377;DHT22;14353;46.070;13.222;2023-02-11T16:24:26;22.30;26.90
23377;DHT22;14353;46.070;13.222;2023-02-11T16:26:55;22.30;26.90
23377;DHT22;14353;46.070;13.222;2023-02-11T16:29:28;22.30;26.90
23377;DHT22;14353;46.070;13.222;2023-02-11T16:32:23;22.20;26.90
23377;DHT22;14353;46.070;13.222;2023-02-11T16:34:51;22.20;26.90
23377;DHT22;14353;46.070;13.222;2023-02-11T16:37:17;22.10;26.90
23377;DHT22;14353;46.070;13.222;2023-02-11T16:39:43;22.10;26.90
23377;DHT22;14353;46.070;13.222;2023-02-11T16:42:10;22.10;26.90
23377;DHT22;14353;46.070;13.222;2023-02-11T16:44:36;22.00;26.90
23377;DHT22;14353;46.070;13.222;2023-02-11T16:47:03;22.00;26.90
23377;DHT22;14353;46.070;13.222;2023-02-11T16:49:36;21.90;26.90
23377;DHT22;14353;46.070;13.222;2023-02-11T16:52:05;21.90;26.90
23377;DHT22;14353;46.070;13.222;2023-02-11T16:54:32;21.90;27.10
23377;DHT22;14353;46.070;13.222;2023-02-11T16:56:58;21.80;27.00
23377;DHT22;14353;46.070;13.222;2023-02-11T16:59:24;21.80;27.10
23377;DHT22;14353;46.070;13.222;2023-02-11T17:01:51;21.70;27.00
23377;DHT22;14353;46.070;13.222;2023-02-11T17:04:25;21.70;27.10
23377;DHT22;14353;46.070;13.222;2023-02-11T17:06:51;21.70;27.10
23377;DHT22;14353;46.070;13.222;2023-02-11T17:09:20;21.70;27.10
23377;DHT22;14353;46.070;13.222;2023-02-11T17:11:46;21.60;27.10
23377;DHT22;14353;46.070;13.222;2023-02-11T17:14:11;21.60;27.10
23377;DHT22;14353;46.070;13.222;2023-02-11T17:16:37;21.60;27.10
23377;DHT22;14353;46.070;13.222;2023-02-11T17:19:03;21.60;27.10
23377;DHT22;14353;46.070;13.222;2023-02-11T17:21:29;21.60;27.20
23377;DHT22;14353;46.070;13.222;2023-02-11T17:23:57;21.60;27.20
23377;DHT22;14353;46.070;13.222;2023-02-11T17:26:22;21.60;27.70
23377;DHT22;14353;46.070;13.222;2023-02-11T17:28:48;21.50;27.20
23377;DHT22;14353;46.070;13.222;2023-02-11T17:31:14;21.50;27.30
23377;DHT22;14353;46.070;13.222;2023-02-11T17:33:40;21.50;27.20
23377;DHT22;14353;46.070;13.222;2023-02-11T17:36:07;21.40;27.20
23377;DHT22;14353;46.070;13.222;2023-02-11T17:38:34;21.40;27.20
23377;DHT22;14353;46.070;13.222;2023-02-11T17:41:01;21.40;27.30
23377;DHT22;14353;46.070;13.222;2023-02-11T17:43:28;21.40;27.20
23377;DHT22;14353;46.070;13.222;2023-02-11T17:45:53;21.40;27.30
23377;DHT22;14353;46.070;13.222;2023-02-11T17:48:19;21.40;27.30
23377;DHT22;14353;46.070;13.222;2023-02-11T17:50:45;21.30;27.30
23377;DHT22;14353;46.070;13.222;2023-02-11T17:53:10;21.30;27.30
23377;DHT22;14353;46.070;13.222;2023-02-11T17:55:36;21.30;27.30
23377;DHT22;14353;46.070;13.222;2023-02-11T17:58:05;21.30;27.30
23377;DHT22;14353;46.070;13.222;2023-02-11T18:00:31;21.30;27.40
23377;DHT22;14353;46.070;13.222;2023-02-11T18:02:57;21.20;27.40
23377;DHT22;14353;46.070;13.222;2023-02-11T18:05:28;21.20;27.90
23377;DHT22;14353;46.070;13.222;2023-02-11T18:07:57;21.20;27.40
23377;DHT22;14353;46.070;13.222;2023-02-11T18:10:23;21.20;27.40